sensor_id;sensor_type;location;lat;lon;timestamp;P1;durP1;ratioP1;P2;durP2;ratioP2
18090;SDS011;9172;49.948;9.208;2024-02-21T00:00:40;17.03;;;3.97;;
18090;SDS011;9172;49.948;9.208;2024-02-21T00:03:09;17.53;;;3.67;;
18090;SDS011;9172;49.948;9.208;2024-02-21T00:05:37;9.20;;;3.10;;
18090;SDS011;9172;49.948;9.208;2024-02-21T00:08:06;13.13;;;4.20;;
18090;SDS011;9172;49.948;9.208;2024-02-21T00:10:35;10.40;;;3.50;;
18090;SDS011;9172;49.948;9.208;2024-02-21T00:13:03;13.87;;;3.50;;
18090;SDS011;9172;49.948;9.208;2024-02-21T00:15:32;8.73;;;2.90;;
18090;SDS011;9172;49.948;9.208;2024-02-21T00:18:00;8.47;;;2.57;;
18090;SDS011;9172;49.948;9.208;2024-02-21T00:20:29;9.50;;;3.17;;
18090;SDS011;9172;49.948;9.208;2024-02-21T00:22:58;11.13;;;3.27;;
18090;SDS011;9172;49.948;9.208;2024-02-21T00:25:26;21.67;;;4.20;;
18090;SDS011;9172;49.948;9.208;2024-02-21T00:27:55;13.63;;;3.20;;
18090;SDS011;9172;49.948;9.208;2024-02-21T00:30:23;11.90;;;3.93;;
18090;SDS011;9172;49.948;9.208;2024-02-21T00:32:52;6.63;;;2.97;;
18090;SDS011;9172;49.948;9.208;2024-02-21T00:35:20;9.13;;;3.20;;
18090;SDS011;9172;49.948;9.208;2024-02-21T00:37:49;17.93;;;3.33;;
18090;SDS011;9172;49.948;9.208;2024-02-21T00:40:18;11.90;;;3.20;;
18090;SDS011;9172;49.948;9.208;2024-02-21T00:42:48;7.17;;;3.33;;
18090;SDS011;9172;49.948;9.208;2024-02-21T00:45:16;8.13;;;3.00;;
18090;SDS011;9172;49.948;9.208;2024-02-21T00:47:45;10.43;;;3.07;;
18090;SDS011;9172;49.948;9.208;2024-02-21T00:50:14;11.97;;;3.00;;
18090;SDS011;9172;49.948;9.208;2024-02-21T00:52:42;8.30;;;3.47;;
18090;SDS011;9172;49.948;9.208;2024-02-21T00:55:19;7.87;;;3.07;;
18090;SDS011;9172;49.948;9.208;2024-02-21T00:57:48;10.97;;;4.00;;
18090;SDS011;9172;49.948;9.208;2024-02-21T01:00:18;10.27;;;3.13;;
18090;SDS011;9172;49.948;9.208;2024-02-21T01:02:47;12.10;;;4.50;;
18090;SDS011;9172;49.948;9.208;2024-02-21T01:05:15;14.40;;;3.93;;
18090;SDS011;9172;49.948;9.208;2024-02-21T01:07:45;16.77;;;4.40;;
18090;SDS011;9172;49.948;9.208;2024-02-21T01:10:14;11.23;;;4.40;;
18090;SDS011;9172;49.948;9.208;2024-02-21T01:15:19;15.93;;;3.70;;
18090;SDS011;9172;49.948;9.208;2024-02-21T01:17:47;14.00;;;4.43;;
18090;SDS011;9172;49.948;9.208;2024-02-21T01:20:18;12.10;;;4.13;;
18090;SDS011;9172;49.948;9.208;2024-02-21T01:22:46;11.00;;;4.10;;
18090;SDS011;9172;49.948;9.208;2024-02-21T01:25:15;12.33;;;3.83;;
18090;SDS011;9172;49.948;9.208;2024-02-21T01:27:44;11.60;;;4.20;;
18090;SDS011;9172;49.948;9.208;2024-02-21T01:30:13;11.97;;;5.03;;
18090;SDS011;9172;49.948;9.208;2024-02-21T01:32:41;13.37;;;4.70;;
18090;SDS011;9172;49.948;9.208;2024-02-21T01:35:10;10.97;;;4.20;;
18090;SDS011;9172;49.948;9.208;2024-02-21T01:37:39;13.60;;;5.43;;
18090;SDS011;9172;49.948;9.208;2024-02-21T01:40:09;16.40;;;5.03;;
18090;SDS011;9172;49.948;9.208;2024-02-21T01:42:39;14.87;;;4.80;;
18090;SDS011;9172;49.948;9.208;2024-02-21T01:45:09;17.20;;;5.50;;
18090;SDS011;9172;49.948;9.208;2024-02-21T01:47:37;11.07;;;4.60;;
18090;SDS011;9172;49.948;9.208;2024-02-21T01:50:07;15.23;;;5.17;;
18090;SDS011;9172;49.948;9.208;2024-02-21T01:52:36;12.73;;;5.07;;
18090;SDS011;9172;49.948;9.208;2024-02-21T01:55:07;14.10;;;4.53;;
18090;SDS011;9172;49.948;9.208;2024-02-21T01:57:47;14.37;;;4.47;;
18090;SDS011;9172;49.948;9.208;2024-02-21T02:00:16;11.93;;;4.07;;
18090;SDS011;9172;49.948;9.208;2024-02-21T02:02:46;15.73;;;4.83;;
18090;SDS011;9172;49.948;9.208;2024-02-21T02:05:14;9.67;;;4.63;;
18090;SDS011;9172;49.948;9.208;2024-02-21T02:07:44;12.77;;;4.43;;
18090;SDS011;9172;49.948;9.208;2024-02-21T02:10:13;12.80;;;5.07;;
18090;SDS011;9172;49.948;9.208;2024-02-21T02:12:42;14.90;;;4.40;;
18090;SDS011;9172;49.948;9.208;2024-02-21T02:15:10;14.27;;;4.30;;
18090;SDS011;9172;49.948;9.208;2024-02-21T02:17:39;11.93;;;4.50;;
18090;SDS011;9172;49.948;9.208;2024-02-21T02:20:08;10.60;;;4.67;;
18090;SDS011;9172;49.948;9.208;2024-02-21T02:22:38;8.93;;;3.70;;
18090;SDS011;9172;49.948;9.208;2024-02-21T02:25:09;13.97;;;4.37;;
18090;SDS011;9172;49.948;9.208;2024-02-21T02:27:42;14.57;;;5.13;;
18090;SDS011;9172;49.948;9.208;2024-02-21T02:30:12;9.57;;;4.20;;
18090;SDS011;9172;49.948;9.208;2024-02-21T02:32:43;11.20;;;3.77;;
18090;SDS011;9172;49.948;9.208;2024-02-21T02:35:13;10.20;;;3.87;;
18090;SDS011;9172;49.948;9.208;2024-02-21T02:37:47;8.67;;;3.40;;
18090;SDS011;9172;49.948;9.208;2024-02-21T02:40:16;6.73;;;3.43;;
18090;SDS011;9172;49.948;9.208;2024-02-21T02:42:45;17.83;;;4.47;;
18090;SDS011;9172;49.948;9.208;2024-02-21T02:45:15;10.93;;;4.13;;
18090;SDS011;9172;49.948;9.208;2024-02-21T02:47:44;14.00;;;4.67;;
18090;SDS011;9172;49.948;9.208;2024-02-21T02:50:13;10.43;;;4.43;;
18090;SDS011;9172;49.948;9.208;2024-02-21T02:52:42;10.00;;;4.57;;
18090;SDS011;9172;49.948;9.208;2024-02-21T02:55:10;11.13;;;3.87;;
18090;SDS011;9172;49.948;9.208;2024-02-21T02:57:39;10.03;;;3.87;;
18090;SDS011;9172;49.948;9.208;2024-02-21T03:00:09;9.53;;;4.10;;
18090;SDS011;9172;49.948;9.208;2024-02-21T03:02:39;10.73;;;4.50;;
18090;SDS011;9172;49.948;9.208;2024-02-21T03:05:12;12.00;;;4.40;;
18090;SDS011;9172;49.948;9.208;2024-02-21T03:07:42;11.33;;;4.00;;
18090;SDS011;9172;49.948;9.208;2024-02-21T03:10:11;13.47;;;4.23;;
18090;SDS011;9172;49.948;9.208;2024-02-21T03:12:42;14.13;;;4.10;;
18090;SDS011;9172;49.948;9.208;2024-02-21T03:15:11;9.50;;;4.53;;
18090;SDS011;9172;49.948;9.208;2024-02-21T03:17:40;13.80;;;4.13;;
18090;SDS011;9172;49.948;9.208;2024-02-21T03:20:09;15.83;;;4.70;;
18090;SDS011;9172;49.948;9.208;2024-02-21T03:22:39;9.10;;;3.67;;
18090;SDS011;9172;49.948;9.208;2024-02-21T03:25:08;8.00;;;3.87;;
18090;SDS011;9172;49.948;9.208;2024-02-21T03:27:38;18.00;;;4.50;;
18090;SDS011;9172;49.948;9.208;2024-02-21T03:30:07;10.67;;;4.10;;
18090;SDS011;9172;49.948;9.208;2024-02-21T03:32:37;15.93;;;4.57;;
18090;SDS011;9172;49.948;9.208;2024-02-21T03:35:06;11.80;;;4.50;;
18090;SDS011;9172;49.948;9.208;2024-02-21T03:37:35;15.27;;;4.80;;
18090;SDS011;9172;49.948;9.208;2024-02-21T03:40:07;11.00;;;4.50;;
18090;SDS011;9172;49.948;9.208;2024-02-21T03:42:37;11.37;;;3.87;;
18090;SDS011;9172;49.948;9.208;2024-02-21T03:45:07;14.60;;;5.53;;
18090;SDS011;9172;49.948;9.208;2024-02-21T03:47:37;15.20;;;4.43;;
18090;SDS011;9172;49.948;9.208;2024-02-21T03:50:06;13.23;;;4.07;;
18090;SDS011;9172;49.948;9.208;2024-02-21T03:52:35;11.70;;;4.43;;
18090;SDS011;9172;49.948;9.208;2024-02-21T03:55:05;13.17;;;4.00;;
18090;SDS011;9172;49.948;9.208;2024-02-21T03:57:36;9.70;;;3.73;;
18090;SDS011;9172;49.948;9.208;2024-02-21T04:00:06;21.27;;;3.57;;
18090;SDS011;9172;49.948;9.208;2024-02-21T04:02:37;14.77;;;4.23;;
18090;SDS011;9172;49.948;9.208;2024-02-21T04:05:06;16.30;;;4.80;;
18090;SDS011;9172;49.948;9.208;2024-02-21T04:07:37;12.90;;;3.90;;
18090;SDS011;9172;49.948;9.208;2024-02-21T04:10:06;16.27;;;4.67;;
18090;SDS011;9172;49.948;9.208;2024-02-21T04:12:36;16.50;;;5.17;;
18090;SDS011;9172;49.948;9.208;2024-02-21T04:15:05;9.37;;;3.90;;
18090;SDS011;9172;49.948;9.208;2024-02-21T04:17:44;9.53;;;4.27;;
18090;SDS011;9172;49.948;9.208;2024-02-21T04:20:14;9.27;;;4.40;;
18090;SDS011;9172;49.948;9.208;2024-02-21T04:22:44;12.23;;;4.37;;
18090;SDS011;9172;49.948;9.208;2024-02-21T04:25:12;14.80;;;3.90;;
18090;SDS011;9172;49.948;9.208;2024-02-21T04:27:42;12.67;;;4.80;;
18090;SDS011;9172;49.948;9.208;2024-02-21T04:30:11;12.53;;;4.30;;
18090;SDS011;9172;49.948;9.208;2024-02-21T04:32:40;9.67;;;3.50;;
18090;SDS011;9172;49.948;9.208;2024-02-21T04:35:09;12.03;;;4.13;;
18090;SDS011;9172;49.948;9.208;2024-02-21T04:37:37;9.40;;;3.60;;
18090;SDS011;9172;49.948;9.208;2024-02-21T04:40:09;18.43;;;5.27;;
18090;SDS011;9172;49.948;9.208;2024-02-21T04:42:39;15.00;;;4.07;;
18090;SDS011;9172;49.948;9.208;2024-02-21T04:45:08;16.17;;;4.20;;
18090;SDS011;9172;49.948;9.208;2024-02-21T04:47:38;8.87;;;3.93;;
18090;SDS011;9172;49.948;9.208;2024-02-21T04:50:07;14.23;;;4.73;;
18090;SDS011;9172;49.948;9.208;2024-02-21T04:52:36;13.60;;;4.20;;
18090;SDS011;9172;49.948;9.208;2024-02-21T04:55:05;9.17;;;4.03;;
18090;SDS011;9172;49.948;9.208;2024-02-21T04:57:42;12.87;;;4.00;;
18090;SDS011;9172;49.948;9.208;2024-02-21T05:00:11;11.53;;;4.20;;
18090;SDS011;9172;49.948;9.208;2024-02-21T05:02:41;13.03;;;4.40;;
18090;SDS011;9172;49.948;9.208;2024-02-21T05:05:09;14.27;;;4.10;;
18090;SDS011;9172;49.948;9.208;2024-02-21T05:07:38;10.83;;;3.97;;
18090;SDS011;9172;49.948;9.208;2024-02-21T05:10:08;16.20;;;5.40;;
18090;SDS011;9172;49.948;9.208;2024-02-21T05:12:37;11.50;;;4.13;;
18090;SDS011;9172;49.948;9.208;2024-02-21T05:15:06;14.20;;;4.17;;
18090;SDS011;9172;49.948;9.208;2024-02-21T05:17:36;14.23;;;4.23;;
18090;SDS011;9172;49.948;9.208;2024-02-21T05:20:05;13.77;;;4.93;;
18090;SDS011;9172;49.948;9.208;2024-02-21T05:22:35;11.67;;;4.57;;
18090;SDS011;9172;49.948;9.208;2024-02-21T05:25:04;13.40;;;4.67;;
18090;SDS011;9172;49.948;9.208;2024-02-21T05:27:35;9.07;;;4.43;;
18090;SDS011;9172;49.948;9.208;2024-02-21T05:30:06;15.63;;;4.73;;
18090;SDS011;9172;49.948;9.208;2024-02-21T05:32:36;9.67;;;4.00;;
18090;SDS011;9172;49.948;9.208;2024-02-21T05:35:05;12.97;;;4.80;;
18090;SDS011;9172;49.948;9.208;2024-02-21T05:37:34;12.10;;;4.87;;
18090;SDS011;9172;49.948;9.208;2024-02-21T05:40:02;15.80;;;4.67;;
18090;SDS011;9172;49.948;9.208;2024-02-21T05:42:32;12.20;;;4.47;;
18090;SDS011;9172;49.948;9.208;2024-02-21T05:45:01;9.57;;;3.70;;
18090;SDS011;9172;49.948;9.208;2024-02-21T05:47:30;9.53;;;3.67;;
18090;SDS011;9172;49.948;9.208;2024-02-21T05:49:58;12.33;;;4.33;;
18090;SDS011;9172;49.948;9.208;2024-02-21T05:52:27;17.13;;;4.47;;
18090;SDS011;9172;49.948;9.208;2024-02-21T05:54:56;13.10;;;5.20;;
18090;SDS011;9172;49.948;9.208;2024-02-21T05:57:24;11.07;;;3.87;;
18090;SDS011;9172;49.948;9.208;2024-02-21T05:59:53;13.83;;;4.50;;
18090;SDS011;9172;49.948;9.208;2024-02-21T06:02:21;13.07;;;4.40;;
18090;SDS011;9172;49.948;9.208;2024-02-21T06:04:50;7.70;;;4.07;;
18090;SDS011;9172;49.948;9.208;2024-02-21T06:07:27;8.63;;;3.90;;
18090;SDS011;9172;49.948;9.208;2024-02-21T06:09:55;13.83;;;3.97;;
18090;SDS011;9172;49.948;9.208;2024-02-21T06:12:24;8.87;;;3.70;;
18090;SDS011;9172;49.948;9.208;2024-02-21T06:14:52;11.67;;;4.10;;
18090;SDS011;9172;49.948;9.208;2024-02-21T06:17:21;12.97;;;4.43;;
18090;SDS011;9172;49.948;9.208;2024-02-21T06:19:49;10.10;;;4.93;;
18090;SDS011;9172;49.948;9.208;2024-02-21T06:22:18;11.83;;;4.13;;
18090;SDS011;9172;49.948;9.208;2024-02-21T06:24:46;16.60;;;4.57;;
18090;SDS011;9172;49.948;9.208;2024-02-21T06:27:15;7.93;;;3.57;;
18090;SDS011;9172;49.948;9.208;2024-02-21T06:29:44;9.37;;;4.03;;
18090;SDS011;9172;49.948;9.208;2024-02-21T06:32:13;13.53;;;4.07;;
18090;SDS011;9172;49.948;9.208;2024-02-21T06:34:41;12.27;;;4.23;;
18090;SDS011;9172;49.948;9.208;2024-02-21T06:37:10;8.87;;;3.67;;
18090;SDS011;9172;49.948;9.208;2024-02-21T06:39:38;14.87;;;3.80;;
18090;SDS011;9172;49.948;9.208;2024-02-21T06:42:07;11.17;;;3.27;;
18090;SDS011;9172;49.948;9.208;2024-02-21T06:44:36;10.57;;;3.50;;
18090;SDS011;9172;49.948;9.208;2024-02-21T06:47:06;12.27;;;4.17;;
18090;SDS011;9172;49.948;9.208;2024-02-21T06:49:35;14.10;;;4.27;;
18090;SDS011;9172;49.948;9.208;2024-02-21T06:52:04;11.73;;;3.40;;
18090;SDS011;9172;49.948;9.208;2024-02-21T06:54:33;10.13;;;3.50;;
18090;SDS011;9172;49.948;9.208;2024-02-21T06:57:01;8.47;;;3.03;;
18090;SDS011;9172;49.948;9.208;2024-02-21T06:59:30;19.60;;;3.97;;
18090;SDS011;9172;49.948;9.208;2024-02-21T07:01:59;9.87;;;3.53;;
18090;SDS011;9172;49.948;9.208;2024-02-21T07:04:28;11.83;;;3.07;;
18090;SDS011;9172;49.948;9.208;2024-02-21T07:06:56;13.83;;;3.73;;
18090;SDS011;9172;49.948;9.208;2024-02-21T07:09:25;12.87;;;3.27;;
18090;SDS011;9172;49.948;9.208;2024-02-21T07:11:55;12.13;;;4.00;;
18090;SDS011;9172;49.948;9.208;2024-02-21T07:14:23;7.67;;;2.60;;
18090;SDS011;9172;49.948;9.208;2024-02-21T07:16:52;12.33;;;3.50;;
18090;SDS011;9172;49.948;9.208;2024-02-21T07:19:21;12.23;;;3.47;;
18090;SDS011;9172;49.948;9.208;2024-02-21T07:21:49;10.90;;;4.03;;
18090;SDS011;9172;49.948;9.208;2024-02-21T07:24:18;11.93;;;3.37;;
18090;SDS011;9172;49.948;9.208;2024-02-21T07:26:47;13.83;;;2.93;;
18090;SDS011;9172;49.948;9.208;2024-02-21T07:29:16;10.23;;;2.93;;
18090;SDS011;9172;49.948;9.208;2024-02-21T07:31:44;11.63;;;3.30;;
18090;SDS011;9172;49.948;9.208;2024-02-21T07:34:15;11.43;;;3.00;;
18090;SDS011;9172;49.948;9.208;2024-02-21T07:36:43;7.90;;;3.00;;
18090;SDS011;9172;49.948;9.208;2024-02-21T07:39:12;11.07;;;3.43;;
18090;SDS011;9172;49.948;9.208;2024-02-21T07:41:49;16.00;;;3.17;;
18090;SDS011;9172;49.948;9.208;2024-02-21T07:44:17;8.60;;;3.40;;
18090;SDS011;9172;49.948;9.208;2024-02-21T07:46:46;16.47;;;3.37;;
18090;SDS011;9172;49.948;9.208;2024-02-21T07:49:14;5.70;;;2.63;;
18090;SDS011;9172;49.948;9.208;2024-02-21T07:54:19;6.33;;;2.90;;
18090;SDS011;9172;49.948;9.208;2024-02-21T07:56:47;9.77;;;3.17;;
18090;SDS011;9172;49.948;9.208;2024-02-21T07:59:16;11.90;;;3.17;;
18090;SDS011;9172;49.948;9.208;2024-02-21T08:01:44;9.50;;;2.50;;
18090;SDS011;9172;49.948;9.208;2024-02-21T08:04:13;10.23;;;2.70;;
18090;SDS011;9172;49.948;9.208;2024-02-21T08:06:41;14.87;;;3.60;;
18090;SDS011;9172;49.948;9.208;2024-02-21T08:09:11;12.57;;;3.10;;
18090;SDS011;9172;49.948;9.208;2024-02-21T08:11:40;13.90;;;3.50;;
18090;SDS011;9172;49.948;9.208;2024-02-21T08:14:08;13.90;;;4.47;;
18090;SDS011;9172;49.948;9.208;2024-02-21T08:16:37;9.20;;;3.37;;
18090;SDS011;9172;49.948;9.208;2024-02-21T08:19:05;7.50;;;3.10;;
18090;SDS011;9172;49.948;9.208;2024-02-21T08:21:34;8.63;;;2.93;;
18090;SDS011;9172;49.948;9.208;2024-02-21T08:24:03;10.60;;;2.83;;
18090;SDS011;9172;49.948;9.208;2024-02-21T08:26:32;7.03;;;2.80;;
18090;SDS011;9172;49.948;9.208;2024-02-21T08:29:02;13.17;;;3.23;;
18090;SDS011;9172;49.948;9.208;2024-02-21T08:31:30;13.00;;;3.37;;
18090;SDS011;9172;49.948;9.208;2024-02-21T08:34:01;10.33;;;2.70;;
18090;SDS011;9172;49.948;9.208;2024-02-21T08:36:30;10.40;;;3.50;;
18090;SDS011;9172;49.948;9.208;2024-02-21T08:38:59;7.03;;;2.53;;
18090;SDS011;9172;49.948;9.208;2024-02-21T08:41:31;16.77;;;2.67;;
18090;SDS011;9172;49.948;9.208;2024-02-21T08:44:00;11.30;;;3.10;;
18090;SDS011;9172;49.948;9.208;2024-02-21T08:46:29;7.97;;;2.80;;
18090;SDS011;9172;49.948;9.208;2024-02-21T08:48:58;10.17;;;2.57;;
18090;SDS011;9172;49.948;9.208;2024-02-21T08:51:27;7.10;;;2.53;;
18090;SDS011;9172;49.948;9.208;2024-02-21T08:53:56;11.63;;;2.87;;
18090;SDS011;9172;49.948;9.208;2024-02-21T08:56:26;12.10;;;3.37;;
18090;SDS011;9172;49.948;9.208;2024-02-21T08:58:56;8.50;;;2.83;;
18090;SDS011;9172;49.948;9.208;2024-02-21T09:01:25;11.73;;;4.13;;
18090;SDS011;9172;49.948;9.208;2024-02-21T09:03:54;8.30;;;2.50;;
18090;SDS011;9172;49.948;9.208;2024-02-21T09:06:23;4.90;;;2.23;;
18090;SDS011;9172;49.948;9.208;2024-02-21T09:08:53;10.03;;;3.13;;
18090;SDS011;9172;49.948;9.208;2024-02-21T09:11:24;7.77;;;2.10;;
18090;SDS011;9172;49.948;9.208;2024-02-21T09:13:54;7.37;;;2.90;;
18090;SDS011;9172;49.948;9.208;2024-02-21T09:16:23;10.93;;;3.07;;
18090;SDS011;9172;49.948;9.208;2024-02-21T09:18:51;10.90;;;2.70;;
18090;SDS011;9172;49.948;9.208;2024-02-21T09:21:19;11.77;;;3.07;;
18090;SDS011;9172;49.948;9.208;2024-02-21T09:23:48;8.23;;;2.60;;
18090;SDS011;9172;49.948;9.208;2024-02-21T09:26:16;10.00;;;2.97;;
18090;SDS011;9172;49.948;9.208;2024-02-21T09:28:45;10.77;;;2.60;;
18090;SDS011;9172;49.948;9.208;2024-02-21T09:31:14;14.03;;;3.37;;
18090;SDS011;9172;49.948;9.208;2024-02-21T09:33:42;14.27;;;2.77;;
18090;SDS011;9172;49.948;9.208;2024-02-21T09:36:11;10.30;;;2.50;;
18090;SDS011;9172;49.948;9.208;2024-02-21T09:38:40;6.97;;;2.73;;
18090;SDS011;9172;49.948;9.208;2024-02-21T09:41:11;6.97;;;2.97;;
18090;SDS011;9172;49.948;9.208;2024-02-21T09:43:49;8.97;;;2.57;;
18090;SDS011;9172;49.948;9.208;2024-02-21T09:46:21;7.00;;;2.73;;
18090;SDS011;9172;49.948;9.208;2024-02-21T09:49:02;5.07;;;2.23;;
18090;SDS011;9172;49.948;9.208;2024-02-21T09:51:33;13.17;;;2.97;;
18090;SDS011;9172;49.948;9.208;2024-02-21T09:54:04;11.80;;;2.70;;
18090;SDS011;9172;49.948;9.208;2024-02-21T09:56:33;9.77;;;2.77;;
18090;SDS011;9172;49.948;9.208;2024-02-21T09:59:01;8.57;;;3.13;;
18090;SDS011;9172;49.948;9.208;2024-02-21T10:01:31;9.90;;;3.13;;
18090;SDS011;9172;49.948;9.208;2024-02-21T10:04:00;14.87;;;2.97;;
18090;SDS011;9172;49.948;9.208;2024-02-21T10:06:30;8.33;;;2.73;;
18090;SDS011;9172;49.948;9.208;2024-02-21T10:08:59;7.90;;;1.70;;
18090;SDS011;9172;49.948;9.208;2024-02-21T10:11:28;7.87;;;2.13;;
18090;SDS011;9172;49.948;9.208;2024-02-21T10:14:04;8.23;;;2.20;;
18090;SDS011;9172;49.948;9.208;2024-02-21T10:16:33;9.33;;;2.20;;
18090;SDS011;9172;49.948;9.208;2024-02-21T10:19:03;12.53;;;2.37;;
18090;SDS011;9172;49.948;9.208;2024-02-21T10:21:32;8.30;;;3.00;;
18090;SDS011;9172;49.948;9.208;2024-02-21T10:24:00;9.00;;;2.23;;
18090;SDS011;9172;49.948;9.208;2024-02-21T10:26:29;7.53;;;2.20;;
18090;SDS011;9172;49.948;9.208;2024-02-21T10:28:57;12.90;;;2.47;;
18090;SDS011;9172;49.948;9.208;2024-02-21T10:31:28;8.20;;;2.03;;
18090;SDS011;9172;49.948;9.208;2024-02-21T10:33:57;12.87;;;2.00;;
18090;SDS011;9172;49.948;9.208;2024-02-21T10:36:29;7.10;;;2.30;;
18090;SDS011;9172;49.948;9.208;2024-02-21T10:38:57;7.73;;;2.40;;
18090;SDS011;9172;49.948;9.208;2024-02-21T10:41:26;5.23;;;1.87;;
18090;SDS011;9172;49.948;9.208;2024-02-21T10:43:56;5.87;;;2.07;;
18090;SDS011;9172;49.948;9.208;2024-02-21T10:46:26;9.83;;;2.43;;
18090;SDS011;9172;49.948;9.208;2024-02-21T10:49:01;10.53;;;1.97;;
18090;SDS011;9172;49.948;9.208;2024-02-21T10:54:13;6.17;;;2.13;;
18090;SDS011;9172;49.948;9.208;2024-02-21T10:56:43;10.03;;;2.47;;
18090;SDS011;9172;49.948;9.208;2024-02-21T10:59:12;5.10;;;1.90;;
18090;SDS011;9172;49.948;9.208;2024-02-21T11:01:42;18.53;;;2.73;;
18090;SDS011;9172;49.948;9.208;2024-02-21T11:04:11;7.90;;;2.00;;
18090;SDS011;9172;49.948;9.208;2024-02-21T11:06:40;8.77;;;2.13;;
18090;SDS011;9172;49.948;9.208;2024-02-21T11:09:10;7.67;;;2.50;;
18090;SDS011;9172;49.948;9.208;2024-02-21T11:11:39;11.47;;;2.10;;
18090;SDS011;9172;49.948;9.208;2024-02-21T11:14:08;6.93;;;1.67;;
18090;SDS011;9172;49.948;9.208;2024-02-21T11:16:40;7.87;;;1.90;;
18090;SDS011;9172;49.948;9.208;2024-02-21T11:19:09;5.87;;;1.80;;
18090;SDS011;9172;49.948;9.208;2024-02-21T11:21:45;8.70;;;2.10;;
18090;SDS011;9172;49.948;9.208;2024-02-21T11:24:14;3.93;;;1.93;;
18090;SDS011;9172;49.948;9.208;2024-02-21T11:27:11;5.07;;;2.13;;
18090;SDS011;9172;49.948;9.208;2024-02-21T11:29:41;3.83;;;2.03;;
18090;SDS011;9172;49.948;9.208;2024-02-21T11:32:11;10.70;;;2.10;;
18090;SDS011;9172;49.948;9.208;2024-02-21T11:34:42;6.53;;;2.07;;
18090;SDS011;9172;49.948;9.208;2024-02-21T11:37:21;10.70;;;2.10;;
18090;SDS011;9172;49.948;9.208;2024-02-21T11:39:51;8.87;;;2.40;;
18090;SDS011;9172;49.948;9.208;2024-02-21T11:42:19;15.93;;;2.30;;
18090;SDS011;9172;49.948;9.208;2024-02-21T11:44:48;7.57;;;2.23;;
18090;SDS011;9172;49.948;9.208;2024-02-21T11:47:17;6.67;;;2.00;;
18090;SDS011;9172;49.948;9.208;2024-02-21T11:49:46;5.97;;;2.10;;
18090;SDS011;9172;49.948;9.208;2024-02-21T11:52:18;6.77;;;2.00;;
18090;SDS011;9172;49.948;9.208;2024-02-21T11:54:50;4.10;;;1.57;;
18090;SDS011;9172;49.948;9.208;2024-02-21T11:57:19;9.43;;;2.07;;
18090;SDS011;9172;49.948;9.208;2024-02-21T11:59:48;5.13;;;1.77;;
18090;SDS011;9172;49.948;9.208;2024-02-21T12:02:19;7.87;;;2.60;;
18090;SDS011;9172;49.948;9.208;2024-02-21T12:04:48;9.17;;;2.20;;
18090;SDS011;9172;49.948;9.208;2024-02-21T12:09:53;5.80;;;2.00;;
18090;SDS011;9172;49.948;9.208;2024-02-21T12:12:23;13.13;;;2.23;;
18090;SDS011;9172;49.948;9.208;2024-02-21T12:14:54;10.00;;;2.40;;
18090;SDS011;9172;49.948;9.208;2024-02-21T12:17:24;11.27;;;2.27;;
18090;SDS011;9172;49.948;9.208;2024-02-21T12:19:52;15.13;;;2.53;;
18090;SDS011;9172;49.948;9.208;2024-02-21T12:22:21;7.37;;;2.17;;
18090;SDS011;9172;49.948;9.208;2024-02-21T12:24:49;6.97;;;1.80;;
18090;SDS011;9172;49.948;9.208;2024-02-21T12:27:18;6.27;;;2.10;;
18090;SDS011;9172;49.948;9.208;2024-02-21T12:29:48;6.63;;;2.63;;
18090;SDS011;9172;49.948;9.208;2024-02-21T12:32:16;4.33;;;1.70;;
18090;SDS011;9172;49.948;9.208;2024-02-21T12:34:45;9.33;;;2.60;;
18090;SDS011;9172;49.948;9.208;2024-02-21T12:37:22;3.10;;;1.60;;
18090;SDS011;9172;49.948;9.208;2024-02-21T12:39:52;6.83;;;2.47;;
18090;SDS011;9172;49.948;9.208;2024-02-21T12:42:21;8.33;;;2.10;;
18090;SDS011;9172;49.948;9.208;2024-02-21T12:44:49;3.23;;;1.60;;
18090;SDS011;9172;49.948;9.208;2024-02-21T12:47:18;3.87;;;1.67;;
18090;SDS011;9172;49.948;9.208;2024-02-21T12:49:49;8.57;;;1.83;;
18090;SDS011;9172;49.948;9.208;2024-02-21T12:52:17;8.50;;;1.80;;
18090;SDS011;9172;49.948;9.208;2024-02-21T12:54:46;7.47;;;1.83;;
18090;SDS011;9172;49.948;9.208;2024-02-21T12:57:16;7.77;;;1.67;;
18090;SDS011;9172;49.948;9.208;2024-02-21T12:59:45;5.00;;;2.00;;
18090;SDS011;9172;49.948;9.208;2024-02-21T13:02:13;6.57;;;1.57;;
18090;SDS011;9172;49.948;9.208;2024-02-21T13:04:42;4.43;;;1.40;;
18090;SDS011;9172;49.948;9.208;2024-02-21T13:07:10;5.57;;;1.50;;
18090;SDS011;9172;49.948;9.208;2024-02-21T13:09:39;6.23;;;2.10;;
18090;SDS011;9172;49.948;9.208;2024-02-21T13:12:08;9.03;;;2.00;;
18090;SDS011;9172;49.948;9.208;2024-02-21T13:14:45;11.93;;;2.17;;
18090;SDS011;9172;49.948;9.208;2024-02-21T13:17:14;4.90;;;1.47;;
18090;SDS011;9172;49.948;9.208;2024-02-21T13:19:43;7.10;;;1.63;;
18090;SDS011;9172;49.948;9.208;2024-02-21T13:22:11;11.07;;;1.90;;
18090;SDS011;9172;49.948;9.208;2024-02-21T13:24:40;4.77;;;2.10;;
18090;SDS011;9172;49.948;9.208;2024-02-21T13:27:08;7.67;;;2.03;;
18090;SDS011;9172;49.948;9.208;2024-02-21T13:29:39;7.17;;;1.73;;
18090;SDS011;9172;49.948;9.208;2024-02-21T13:32:07;5.30;;;1.93;;
18090;SDS011;9172;49.948;9.208;2024-02-21T13:34:36;9.50;;;1.77;;
18090;SDS011;9172;49.948;9.208;2024-02-21T13:37:04;5.60;;;1.80;;
18090;SDS011;9172;49.948;9.208;2024-02-21T13:39:35;4.50;;;1.47;;
18090;SDS011;9172;49.948;9.208;2024-02-21T13:42:04;5.23;;;1.60;;
18090;SDS011;9172;49.948;9.208;2024-02-21T13:44:33;9.23;;;1.97;;
18090;SDS011;9172;49.948;9.208;2024-02-21T13:47:02;5.73;;;1.87;;
18090;SDS011;9172;49.948;9.208;2024-02-21T13:49:33;9.00;;;2.30;;
18090;SDS011;9172;49.948;9.208;2024-02-21T13:52:02;10.00;;;1.80;;
18090;SDS011;9172;49.948;9.208;2024-02-21T13:54:31;12.23;;;1.90;;
18090;SDS011;9172;49.948;9.208;2024-02-21T13:57:00;5.63;;;1.63;;
18090;SDS011;9172;49.948;9.208;2024-02-21T13:59:29;4.33;;;1.60;;
18090;SDS011;9172;49.948;9.208;2024-02-21T14:01:59;9.53;;;1.53;;
18090;SDS011;9172;49.948;9.208;2024-02-21T14:04:27;4.93;;;1.83;;
18090;SDS011;9172;49.948;9.208;2024-02-21T14:06:56;6.90;;;1.80;;
18090;SDS011;9172;49.948;9.208;2024-02-21T14:09:25;2.10;;;1.30;;
18090;SDS011;9172;49.948;9.208;2024-02-21T14:11:54;7.53;;;1.43;;
18090;SDS011;9172;49.948;9.208;2024-02-21T14:14:22;7.10;;;1.73;;
18090;SDS011;9172;49.948;9.208;2024-02-21T14:16:51;4.83;;;1.50;;
18090;SDS011;9172;49.948;9.208;2024-02-21T14:19:19;5.30;;;1.67;;
18090;SDS011;9172;49.948;9.208;2024-02-21T14:21:48;3.37;;;1.20;;
18090;SDS011;9172;49.948;9.208;2024-02-21T14:24:16;5.83;;;1.73;;
18090;SDS011;9172;49.948;9.208;2024-02-21T14:26:45;5.60;;;1.20;;
18090;SDS011;9172;49.948;9.208;2024-02-21T14:29:14;2.67;;;1.30;;
18090;SDS011;9172;49.948;9.208;2024-02-21T14:31:43;4.40;;;1.27;;
18090;SDS011;9172;49.948;9.208;2024-02-21T14:34:12;5.63;;;1.87;;
18090;SDS011;9172;49.948;9.208;2024-02-21T14:36:40;5.50;;;1.53;;
18090;SDS011;9172;49.948;9.208;2024-02-21T14:39:09;10.30;;;1.67;;
18090;SDS011;9172;49.948;9.208;2024-02-21T14:44:15;4.03;;;1.40;;
18090;SDS011;9172;49.948;9.208;2024-02-21T14:46:44;4.47;;;1.50;;
18090;SDS011;9172;49.948;9.208;2024-02-21T14:49:13;5.03;;;1.80;;
18090;SDS011;9172;49.948;9.208;2024-02-21T14:51:42;4.10;;;1.40;;
18090;SDS011;9172;49.948;9.208;2024-02-21T14:54:11;7.07;;;1.43;;
18090;SDS011;9172;49.948;9.208;2024-02-21T14:56:39;4.80;;;1.50;;
18090;SDS011;9172;49.948;9.208;2024-02-21T14:59:08;5.57;;;1.30;;
18090;SDS011;9172;49.948;9.208;2024-02-21T15:01:36;7.63;;;1.83;;
18090;SDS011;9172;49.948;9.208;2024-02-21T15:04:05;6.63;;;1.97;;
18090;SDS011;9172;49.948;9.208;2024-02-21T15:09:09;6.33;;;2.07;;
18090;SDS011;9172;49.948;9.208;2024-02-21T15:11:38;5.23;;;1.73;;
18090;SDS011;9172;49.948;9.208;2024-02-21T15:14:07;6.60;;;1.57;;
18090;SDS011;9172;49.948;9.208;2024-02-21T15:16:35;5.03;;;1.40;;
18090;SDS011;9172;49.948;9.208;2024-02-21T15:19:04;4.87;;;1.80;;
18090;SDS011;9172;49.948;9.208;2024-02-21T15:21:41;4.87;;;1.53;;